Time;durP1;ratioP1;P1;durP2;ratioP2;P2;SDS_P1;SDS_P2;PMS_P1;PMS_P2;Temp;Humidity;BMP_temperature;BMP_pressure;BME280_temperature;BME280_humidity;BME280_pressure;Samples;Min_cycle;Max_cycle;Signal;HPM_P1;HPM_P2
2022/05/03 00:01:50;;;;;;;7.77;6.10;;;;;;;15.79;55.44;97774.16;8482808;27;20528;-75
2022/05/03 00:05:59;;;;;;;7.27;6.57;;;;;;;15.83;55.20;97779.06;8492207;27;20253;-75
2022/05/03 00:10:04;;;;;;;7.77;6.20;;;;;;;15.72;55.63;97783.31;8483487;27;20405;-75
2022/05/03 00:14:21;;;;;;;7.23;6.40;;;;;;;15.84;55.06;97779.94;8483563;27;20233;-76
2022/05/03 00:18:26;;;;;;;6.60;6.00;;;;;;;15.76;55.40;97777.84;8482923;28;20542;-75
2022/05/03 00:22:32;;;;;;;8.17;6.70;;;;;;;15.65;55.63;97764.66;8491678;27;20532;-75
2022/05/03 00:26:36;;;;;;;7.37;6.20;;;;;;;15.60;55.70;97764.13;8482925;27;20241;-75
2022/05/03 00:30:39;;;;;;;6.73;6.00;;;;;;;15.60;55.90;97759.72;8482960;28;20238;-75
2022/05/03 00:34:44;;;;;;;6.70;6.00;;;;;;;15.54;55.62;97757.53;8482612;28;20416;-75
2022/05/03 00:38:47;;;;;;;7.07;6.30;;;;;;;15.58;55.88;97759.00;8486090;27;20228;-75
2022/05/03 00:42:58;;;;;;;7.20;6.50;;;;;;;15.56;55.76;97754.84;8486838;27;20405;-75
2022/05/03 00:47:06;;;;;;;7.57;5.90;;;;;;;15.52;56.21;97756.81;8482393;28;20426;-75
2022/05/03 00:51:15;;;;;;;6.80;6.10;;;;;;;15.48;56.09;97757.97;8482235;28;20235;-75
2022/05/03 00:55:52;;;;;;;8.23;6.23;;;;;;;15.42;56.27;97751.38;8482194;27;20241;-75
2022/05/03 01:00:07;;;;;;;7.00;6.30;;;;;;;15.53;56.16;97752.41;8478839;27;20226;-75
2022/05/03 01:04:22;;;;;;;6.80;6.17;;;;;;;15.44;56.27;97751.28;8481959;28;20234;-74
2022/05/03 01:08:30;;;;;;;8.93;6.20;;;;;;;15.42;56.44;97753.13;8515387;27;20228;-74
2022/05/03 01:12:49;;;;;;;6.60;6.00;;;;;;;15.36;56.62;97751.78;8515214;27;20240;-75
2022/05/03 01:16:56;;;;;;;7.00;6.30;;;;;;;15.39;56.71;97759.41;8515457;27;20260;-75
2022/05/03 01:21:06;;;;;;;7.93;6.17;;;;;;;15.29;56.55;97760.13;8515253;27;20239;-75
2022/05/03 01:25:22;;;;;;;7.47;6.33;;;;;;;15.28;56.61;97759.28;8515354;27;20523;-74
2022/05/03 01:29:31;;;;;;;7.60;6.90;;;;;;;15.28;56.73;97756.69;8497828;27;20412;-74
2022/05/03 01:33:38;;;;;;;8.03;6.40;;;;;;;15.32;56.51;97757.31;8498169;27;20428;-75
2022/05/03 01:38:06;;;;;;;6.33;5.73;;;;;;;15.24;56.24;97752.59;8498083;27;20233;-75
2022/05/03 01:42:11;;;;;;;6.30;5.70;;;;;;;15.14;56.63;97759.38;8497916;27;20237;-74
2022/05/03 01:46:20;;;;;;;6.20;5.67;;;;;;;15.09;56.25;97749.25;8497930;27;20243;-75
2022/05/03 01:50:31;;;;;;;7.37;5.80;;;;;;;15.02;56.28;97750.56;8480370;28;20233;-74
2022/05/03 01:54:47;;;;;;;5.87;5.30;;;;;;;15.06;56.07;97749.47;8480801;28;20229;-75
2022/05/03 01:59:05;;;;;;;7.33;5.03;;;;;;;15.03;56.01;97747.88;8480820;28;20232;-75
2022/05/03 02:03:22;;;;;;;6.17;5.63;;;;;;;14.97;56.39;97748.28;8480433;28;20240;-75
2022/05/03 02:07:41;;;;;;;6.43;5.73;;;;;;;14.88;56.39;97743.66;8480026;28;20229;-74
2022/05/03 02:11:54;;;;;;;6.80;5.87;;;;;;;14.88;55.98;97743.66;8480631;28;20236;-75
2022/05/03 02:16:03;;;;;;;5.80;5.17;;;;;;;14.83;55.88;97740.50;8487129;28;20235;-75
2022/05/03 02:20:15;;;;;;;6.80;6.10;;;;;;;14.74;55.94;97738.53;8486982;27;20462;-75
2022/05/03 02:24:26;;;;;;;5.90;5.30;;;;;;;14.71;55.82;97741.31;8486806;27;20256;-75
2022/05/03 02:28:37;;;;;;;6.73;5.30;;;;;;;14.61;55.79;97741.09;8503660;27;20228;-76
2022/05/03 02:32:46;;;;;;;6.50;5.80;;;;;;;14.60;56.14;97742.88;8503543;27;20236;-75
2022/05/03 02:36:56;;;;;;;6.87;5.87;;;;;;;14.59;56.04;97742.97;8503552;27;20234;-75
2022/05/03 02:41:03;;;;;;;6.87;6.00;;;;;;;14.54;56.08;97743.19;8503215;27;20237;-74
2022/05/03 02:45:08;;;;;;;6.07;5.40;;;;;;;14.48;55.97;97741.00;8503481;27;20239;-75
2022/05/03 02:49:16;;;;;;;6.50;5.50;;;;;;;14.48;56.15;97736.63;8502852;27;20236;-75
2022/05/03 02:53:25;;;;;;;6.93;6.23;;;;;;;14.37;56.35;97730.41;8502772;27;20229;-75
2022/05/03 02:57:32;;;;;;;7.27;6.37;;;;;;;14.32;56.53;97741.16;8502756;27;20225;-75
2022/05/03 03:01:50;;;;;;;10.37;6.30;;;;;;;14.28;56.82;97735.28;8502682;27;20236;-75
2022/05/03 03:05:57;;;;;;;7.10;6.40;;;;;;;14.26;56.67;97728.50;8502770;27;20236;-75
2022/05/03 03:10:04;;;;;;;8.67;6.73;;;;;;;14.28;56.90;97731.84;8502619;27;20251;-75
2022/05/03 03:14:11;;;;;;;7.20;6.10;;;;;;;14.23;57.04;97720.88;8502433;27;20236;-75
2022/05/03 03:18:15;;;;;;;7.07;6.37;;;;;;;14.20;56.98;97726.28;8502330;27;20235;-75
2022/05/03 03:22:20;;;;;;;6.63;6.00;;;;;;;14.17;56.82;97723.88;8502126;27;20233;-74
2022/05/03 03:26:26;;;;;;;7.07;6.30;;;;;;;14.14;56.85;97718.84;8500083;27;20515;-74
2022/05/03 03:30:29;;;;;;;7.73;6.97;;;;;;;14.08;56.90;97718.28;8501955;27;20562;-75
2022/05/03 03:34:33;;;;;;;7.00;6.30;;;;;;;14.10;57.07;97730.41;8501917;27;20228;-74
2022/05/03 03:38:40;;;;;;;9.50;6.80;;;;;;;14.21;56.53;97722.75;8501485;27;20232;-76
2022/05/03 03:42:46;;;;;;;7.37;6.60;;;;;;;14.05;56.89;97723.72;8501416;27;20238;-75
2022/05/03 03:46:49;;;;;;;7.90;7.03;;;;;;;14.09;57.29;97726.97;8501241;27;20228;-76
2022/05/03 03:50:53;;;;;;;6.93;6.03;;;;;;;14.10;56.95;97715.59;8501337;27;20562;-75
2022/05/03 03:54:55;;;;;;;7.37;6.67;;;;;;;14.02;57.04;97730.88;8501067;27;20547;-75
2022/05/03 03:59:07;;;;;;;7.20;6.43;;;;;;;13.96;57.25;97721.69;8501096;27;20253;-75
2022/05/03 04:03:11;;;;;;;7.17;6.33;;;;;;;14.03;56.67;97733.38;8500720;27;20233;-75
2022/05/03 04:07:14;;;;;;;7.90;6.70;;;;;;;13.93;56.88;97734.03;8500949;27;20235;-75
2022/05/03 04:11:18;;;;;;;9.23;7.07;;;;;;;13.93;57.10;97739.25;8500234;27;20239;-74
2022/05/03 04:15:22;;;;;;;7.77;6.70;;;;;;;14.04;56.77;97740.25;8500347;27;20335;-75
2022/05/03 04:19:26;;;;;;;10.57;7.47;;;;;;;13.84;57.34;97741.50;8499841;27;20225;-75
2022/05/03 04:23:29;;;;;;;9.03;7.73;;;;;;;13.82;57.41;97748.56;8499996;27;20255;-75
2022/05/03 04:27:33;;;;;;;9.37;7.90;;;;;;;13.92;57.02;97742.78;8500030;27;20245;-75
2022/05/03 04:31:38;;;;;;;7.87;7.03;;;;;;;13.99;57.46;97752.75;8499780;27;20228;-75
2022/05/03 04:35:41;;;;;;;10.80;7.70;;;;;;;13.89;57.37;97744.63;8487493;27;20236;-79
2022/05/03 04:39:44;;;;;;;8.87;7.93;;;;;;;14.00;57.19;97740.56;8491112;27;20549;-78
2022/05/03 04:43:48;;;;;;;13.73;8.63;;;;;;;13.98;57.45;97747.63;8482451;27;20566;-76
2022/05/03 04:47:52;;;;;;;9.13;7.40;;;;;;;14.09;57.33;97753.00;8482239;27;20555;-77
2022/05/03 04:51:55;;;;;;;8.87;8.00;;;;;;;14.12;57.27;97755.41;8482186;27;20233;-78
2022/05/03 04:55:58;;;;;;;8.37;7.43;;;;;;;14.20;56.98;97763.59;8482206;28;20263;-75
2022/05/03 05:00:01;;;;;;;8.03;7.23;;;;;;;14.25;56.32;97761.50;8481601;28;20270;-76
2022/05/03 05:04:06;;;;;;;8.10;7.30;;;;;;;14.31;56.21;97749.06;8512746;27;20237;-77
2022/05/03 05:08:09;;;;;;;7.77;7.07;;;;;;;14.36;56.06;97753.03;8515834;27;20232;-77
2022/05/03 05:12:13;;;;;;;10.67;7.20;;;;;;;14.40;56.15;97764.94;8515739;27;20237;-77
2022/05/03 05:16:15;;;;;;;9.03;7.07;;;;;;;14.53;56.19;97772.81;8515668;27;20516;-77
2022/05/03 05:20:20;;;;;;;12.23;7.60;;;;;;;14.59;56.78;97772.44;8515729;27;20231;-76
2022/05/03 05:24:25;;;;;;;8.57;7.27;;;;;;;14.71;57.13;97776.03;8506836;27;20419;-74
2022/05/03 05:28:28;;;;;;;8.30;7.50;;;;;;;14.77;57.14;97770.41;8515310;27;20232;-75
2022/05/03 05:32:31;;;;;;;9.77;7.57;;;;;;;14.91;56.67;97772.16;8515288;27;20228;-74
2022/05/03 05:36:35;;;;;;;8.60;7.37;;;;;;;15.01;57.29;97775.81;8515244;27;20448;-75
2022/05/03 05:40:38;;;;;;;9.57;7.50;;;;;;;15.21;57.29;97774.53;8497893;27;20229;-76
2022/05/03 05:44:41;;;;;;;8.37;7.40;;;;;;;15.44;56.91;97780.00;8497937;27;20241;-74
2022/05/03 05:48:45;;;;;;;7.70;7.00;;;;;;;15.67;56.62;97780.19;8497111;27;20232;-75
2022/05/03 05:57:11;;;;;;;9.13;7.47;;;;;;;16.07;55.35;97790.53;8497796;27;20247;-75
2022/05/03 06:01:14;;;;;;;8.40;6.50;;;;;;;16.19;55.00;97779.25;8497546;27;20566;-75
2022/05/03 06:05:17;;;;;;;8.53;6.70;;;;;;;16.48;55.22;97784.19;8497542;27;20546;-75
2022/05/03 06:09:22;;;;;;;12.03;7.10;;;;;;;16.70;54.60;97786.09;8497347;27;20551;-74
2022/05/03 06:13:25;;;;;;;8.87;6.73;;;;;;;16.95;54.71;97780.78;8497132;27;20236;-74
2022/05/03 06:17:28;;;;;;;11.10;7.43;;;;;;;17.06;54.95;97780.00;8497586;27;20511;-75
2022/05/03 06:21:32;;;;;;;7.83;6.10;;;;;;;17.03;53.60;97784.63;8497343;27;20233;-75
2022/05/03 06:25:36;;;;;;;6.97;5.80;;;;;;;17.03;53.69;97785.44;8497070;27;20403;-75
2022/05/03 06:29:39;;;;;;;9.27;5.50;;;;;;;16.83;52.60;97789.53;8497161;27;20564;-75
2022/05/03 06:33:42;;;;;;;7.60;4.90;;;;;;;17.18;52.12;97789.53;8497235;27;20244;-74
2022/05/03 06:37:46;;;;;;;6.20;5.60;;;;;;;17.22;52.22;97787.53;8497000;27;20213;-75
2022/05/03 06:41:51;;;;;;;5.67;4.73;;;;;;;17.68;50.23;97789.31;8496745;27;20233;-75
2022/05/03 06:45:56;;;;;;;8.10;5.00;;;;;;;17.97;49.33;97791.50;8496738;27;20415;-75
2022/05/03 06:49:59;;;;;;;6.30;4.10;;;;;;;17.99;46.69;97794.84;8497068;27;20542;-75
2022/05/03 06:54:02;;;;;;;11.80;4.37;;;;;;;17.97;47.85;97796.75;8497099;27;20557;-75
2022/05/03 06:58:07;;;;;;;6.47;4.67;;;;;;;18.06;48.49;97796.03;8499485;27;20229;-76
2022/05/03 07:02:10;;;;;;;8.00;4.70;;;;;;;18.30;48.75;97788.03;8521479;27;20237;-76
2022/05/03 07:06:18;;;;;;;7.13;4.77;;;;;;;18.32;48.16;97801.03;8519901;27;20425;-76
2022/05/03 07:10:22;;;;;;;7.07;4.37;;;;;;;18.55;47.77;97793.97;8519635;27;20233;-75
2022/05/03 07:14:26;;;;;;;7.23;4.77;;;;;;;18.51;47.33;97798.63;8518944;27;20236;-78
2022/05/03 07:22:50;;;;;;;6.30;4.60;;;;;;;18.58;47.88;97795.50;8518770;27;20393;-75
2022/05/03 07:26:53;;;;;;;5.80;4.10;;;;;;;18.61;47.55;97803.13;8518867;27;20228;-75
2022/05/03 07:30:58;;;;;;;4.90;4.43;;;;;;;18.62;48.43;97813.50;8518668;27;20427;-75
2022/05/03 07:35:01;;;;;;;8.97;4.80;;;;;;;18.52;47.57;97812.56;8518852;27;20563;-75
2022/05/03 07:39:04;;;;;;;6.27;4.30;;;;;;;18.51;48.13;97809.13;8518504;27;20233;-75
2022/05/03 07:43:07;;;;;;;5.37;3.93;;;;;;;18.33;46.54;97806.16;8501328;27;20232;-74
2022/05/03 07:47:11;;;;;;;7.10;4.33;;;;;;;18.55;46.92;97814.94;8501166;27;20309;-75
2022/05/03 07:51:14;;;;;;;4.00;3.60;;;;;;;18.12;44.88;97810.44;8500958;27;20539;-75
2022/05/03 07:55:20;;;;;;;6.70;3.80;;;;;;;18.39;45.35;97823.19;8501165;27;20243;-74
2022/05/03 07:59:25;;;;;;;5.33;3.53;;;;;;;18.44;45.22;97820.22;8500687;27;20231;-73
2022/05/03 08:03:29;;;;;;;22.00;5.30;;;;;;;19.28;54.24;97828.34;8498827;27;20233;-75
2022/05/03 08:07:32;;;;;;;13.93;3.90;;;;;;;19.77;50.09;97821.69;8500829;27;20513;-75
2022/05/03 08:11:35;;;;;;;6.50;3.40;;;;;;;19.93;46.63;97821.19;8500094;27;20236;-74
2022/05/03 08:15:38;;;;;;;4.27;2.90;;;;;;;20.13;44.24;97826.56;8500584;27;20241;-74
2022/05/03 08:19:43;;;;;;;5.77;2.77;;;;;;;20.07;43.31;97823.50;8500565;27;20558;-75
2022/05/03 08:23:46;;;;;;;3.13;2.83;;;;;;;20.06;42.56;97832.34;8500236;27;20520;-75
2022/05/03 08:27:49;;;;;;;6.23;3.13;;;;;;;20.38;42.30;97835.81;8500399;27;20292;-75
2022/05/03 08:31:52;;;;;;;4.40;3.20;;;;;;;20.41;42.03;97836.38;8499874;27;20233;-75
2022/05/03 08:35:57;;;;;;;10.83;9.67;;;;;;;19.78;41.17;97836.50;8500010;27;20245;-75
2022/05/03 08:44:21;;;;;;;8.13;4.17;;;;;;;19.95;40.74;97839.47;8482752;27;20436;-75
2022/05/03 08:48:28;;;;;;;7.70;4.23;;;;;;;20.36;42.22;97841.19;8498852;27;20532;-76
2022/05/03 08:52:43;;;;;;;8.00;3.90;;;;;;;20.34;42.09;97842.28;8498998;27;20234;-74
2022/05/03 08:56:46;;;;;;;4.43;3.60;;;;;;;20.44;41.51;97838.72;8490610;27;20231;-74
2022/05/03 09:00:49;;;;;;;6.67;3.77;;;;;;;20.57;41.13;97842.94;8490853;27;20420;-75
2022/05/03 09:04:52;;;;;;;5.67;3.37;;;;;;;21.10;40.65;97842.66;8490488;27;20405;-75
2022/05/03 09:08:56;;;;;;;116.03;9.87;;;;;;;20.91;40.62;97837.38;8490273;27;20550;-75
2022/05/03 09:13:14;;;;;;;15.10;11.30;;;;;;;20.57;39.17;97841.13;8490293;27;20543;-75
2022/05/03 09:17:34;;;;;;;14.00;4.93;;;;;;;20.85;40.88;97842.19;8490095;27;20295;-74
2022/05/03 09:26:10;;;;;;;5.83;4.03;;;;;;;20.97;40.11;97848.16;8490110;27;20548;-75
2022/05/03 09:30:13;;;;;;;12.50;4.33;;;;;;;21.12;40.88;97847.78;8489747;27;20237;-75
2022/05/03 09:34:23;;;;;;;10.10;4.10;;;;;;;21.34;41.19;97850.13;8490144;27;20587;-75
2022/05/03 09:38:26;;;;;;;8.07;3.70;;;;;;;21.46;40.83;97851.69;8481589;27;20215;-75
2022/05/03 09:42:31;;;;;;;4.27;3.33;;;;;;;21.44;40.22;97845.72;8498256;27;20422;-75
2022/05/03 09:46:53;;;;;;;5.80;3.57;;;;;;;21.62;40.73;97837.13;8497959;27;20536;-74
2022/05/03 09:50:56;;;;;;;10.37;3.40;;;;;;;21.81;40.24;97838.88;8497954;27;20235;-75
2022/05/03 09:55:04;;;;;;;44.40;5.43;;;;;;;21.99;40.07;97841.59;8497707;27;20239;-75
2022/05/03 09:59:09;;;;;;;7.77;2.63;;;;;;;21.92;38.77;97843.16;8497762;27;20253;-75
2022/05/03 10:03:13;;;;;;;9.20;3.47;;;;;;;21.88;39.65;97839.97;8497427;27;20241;-75
2022/05/03 10:07:16;;;;;;;379.70;13.17;;;;;;;22.02;39.73;97831.59;8497368;27;20231;-75
2022/05/03 10:11:21;;;;;;;54.87;4.10;;;;;;;22.55;39.67;97834.63;8497576;27;20242;-75
2022/05/03 10:24:09;;;;;;;10.57;3.23;;;;;;;22.58;38.29;97821.13;8497397;27;20229;-75
2022/05/03 10:28:13;;;;;;;8.43;2.70;;;;;;;22.60;38.31;97829.75;8497375;27;20232;-75
2022/05/03 10:32:18;;;;;;;7.27;2.90;;;;;;;22.56;38.18;97831.00;8497248;27;20239;-76
2022/05/03 10:36:45;;;;;;;7.33;3.03;;;;;;;22.42;39.04;97825.22;8503547;27;20244;-75
2022/05/03 10:40:49;;;;;;;8.50;3.00;;;;;;;22.48;39.15;97818.53;8486101;28;20232;-75
2022/05/03 10:45:01;;;;;;;10.20;3.17;;;;;;;22.42;39.57;97811.22;8486254;28;20240;-75
2022/05/03 10:49:06;;;;;;;5.17;3.13;;;;;;;22.41;38.08;97809.56;8486437;28;20237;-75
2022/05/03 10:53:22;;;;;;;7.00;3.10;;;;;;;21.88;37.78;97802.25;8486476;27;20240;-75
2022/05/03 10:57:25;;;;;;;12.63;3.30;;;;;;;22.21;39.51;97804.34;8502824;27;20239;-74
2022/05/03 11:01:28;;;;;;;8.17;3.17;;;;;;;22.22;37.97;97794.63;8503030;27;20232;-74
2022/05/03 11:05:34;;;;;;;8.33;3.23;;;;;;;22.25;39.14;97789.91;8502191;27;20236;-75
2022/05/03 11:09:37;;;;;;;7.27;3.20;;;;;;;22.16;38.81;97789.91;8502468;27;20255;-75
2022/05/03 11:13:40;;;;;;;12.63;3.43;;;;;;;22.53;37.88;97781.19;8502706;27;20236;-75
2022/05/03 11:17:43;;;;;;;7.33;3.60;;;;;;;22.19;36.91;97782.56;8502529;27;20559;-75
2022/05/03 11:21:49;;;;;;;8.87;3.87;;;;;;;22.43;37.49;97778.59;8502194;27;20295;-75
2022/05/03 11:25:52;;;;;;;6.70;3.10;;;;;;;22.75;38.33;97772.00;8501958;27;20270;-75
2022/05/03 11:30:00;;;;;;;40.83;4.13;;;;;;;22.96;38.20;97769.91;8501464;27;20235;-74
2022/05/03 11:34:06;;;;;;;5.00;3.50;;;;;;;23.97;35.49;97764.22;8501669;27;20477;-74
2022/05/03 11:38:11;;;;;;;7.27;3.57;;;;;;;24.19;34.54;97751.41;8501706;27;20427;-74
2022/05/03 11:42:38;;;;;;;3.53;3.00;;;;;;;24.40;33.54;97749.16;8501061;27;20238;-74
2022/05/03 11:46:43;;;;;;;4.87;2.83;;;;;;;24.56;33.37;97743.16;8500321;27;20237;-74
2022/05/03 11:59:32;;;;;;;5.07;3.10;;;;;;;25.29;33.22;97738.09;8500247;27;20234;-74
2022/05/03 12:03:46;;;;;;;4.00;3.00;;;;;;;25.41;31.17;97739.41;8500963;27;20401;-75
2022/05/03 12:07:51;;;;;;;4.60;2.70;;;;;;;25.34;30.37;97728.66;8500674;27;20413;-75
2022/05/03 12:16:21;;;;;;;5.40;2.90;;;;;;;25.40;31.21;97732.47;8500590;27;20232;-75
2022/05/03 12:20:24;;;;;;;4.57;2.73;;;;;;;25.32;30.22;97727.16;8498745;27;20230;-75
2022/05/03 12:24:34;;;;;;;3.80;2.93;;;;;;;25.71;30.81;97723.78;8489769;27;20255;-74
2022/05/03 12:28:40;;;;;;;4.07;2.47;;;;;;;25.74;30.30;97720.75;8483005;28;20243;-74
2022/05/03 12:32:43;;;;;;;3.57;2.87;;;;;;;25.92;30.00;97716.09;8483184;28;20297;-74
2022/05/03 12:36:46;;;;;;;5.80;3.03;;;;;;;25.58;28.73;97712.88;8502425;27;20288;-75
2022/05/03 12:40:52;;;;;;;4.43;2.90;;;;;;;25.30;28.37;97707.94;8504154;27;20424;-75
2022/05/03 12:44:59;;;;;;;4.27;2.90;;;;;;;25.52;28.73;97693.16;8499435;27;20459;-75
2022/05/03 12:49:04;;;;;;;5.53;3.37;;;;;;;25.47;29.08;97703.44;8499687;27;20232;-75
2022/05/03 12:53:07;;;;;;;5.63;2.67;;;;;;;26.11;29.52;97696.28;8499041;27;20231;-74
2022/05/03 13:01:32;;;;;;;4.13;2.67;;;;;;;26.18;28.00;97687.63;8481525;28;20528;-75
2022/05/03 13:05:35;;;;;;;6.30;2.70;;;;;;;26.20;26.04;97678.50;8481889;27;20237;-75
2022/05/03 13:09:38;;;;;;;7.83;3.00;;;;;;;26.29;27.98;97668.66;8481559;27;20240;-73
2022/05/03 13:13:42;;;;;;;5.27;2.60;;;;;;;26.32;27.80;97678.94;8482120;28;20235;-73
2022/05/03 13:17:46;;;;;;;5.77;2.60;;;;;;;25.65;27.23;97682.84;8482005;28;20234;-73
2022/05/03 13:21:50;;;;;;;4.90;2.87;;;;;;;24.24;27.91;97668.91;8481399;28;20232;-73
2022/05/03 13:25:53;;;;;;;4.83;2.87;;;;;;;23.73;29.72;97675.00;8481189;28;20516;-74
2022/05/03 13:29:56;;;;;;;4.37;2.90;;;;;;;23.84;29.87;97673.09;8481582;28;20234;-74
2022/05/03 13:34:01;;;;;;;3.50;2.77;;;;;;;23.23;29.34;97675.72;8498323;27;20236;-73
2022/05/03 13:42:24;;;;;;;6.63;3.10;;;;;;;22.85;30.84;97669.81;8480715;28;20226;-73
2022/05/03 13:46:27;;;;;;;4.23;3.10;;;;;;;22.60;31.84;97674.06;8480848;28;20238;-73
2022/05/03 13:50:32;;;;;;;4.93;3.07;;;;;;;22.52;30.84;97668.69;8480924;28;20540;-73
2022/05/03 13:54:46;;;;;;;5.37;3.20;;;;;;;22.16;31.72;97672.09;8430093;27;20343;-74
2022/05/03 13:58:49;;;;;;;6.70;3.10;;;;;;;21.60;33.93;97683.59;8490931;27;20229;-73
2022/05/03 14:02:52;;;;;;;6.43;3.00;;;;;;;21.82;33.58;97677.16;8480819;28;20435;-73
2022/05/03 14:06:56;;;;;;;7.77;2.97;;;;;;;21.57;33.63;97692.63;8480581;28;20244;-74
2022/05/03 14:10:59;;;;;;;4.87;2.73;;;;;;;21.93;35.41;97679.56;8486742;28;20237;-73
2022/05/03 14:15:04;;;;;;;4.17;2.70;;;;;;;23.13;32.43;97670.56;8487578;28;20233;-73
2022/05/03 14:19:07;;;;;;;5.67;3.07;;;;;;;22.69;31.43;97661.75;8487382;27;20225;-73
2022/05/03 14:23:12;;;;;;;5.37;2.50;;;;;;;22.48;30.43;97667.31;8486949;28;20282;-73
2022/05/03 14:27:15;;;;;;;4.80;2.47;;;;;;;23.07;30.21;97660.59;8487076;28;20436;-73
2022/05/03 14:31:18;;;;;;;5.17;2.37;;;;;;;22.72;30.80;97650.88;8487201;28;20229;-73
2022/05/03 14:35:21;;;;;;;5.60;2.60;;;;;;;23.48;29.99;97647.63;8487209;27;20233;-74
2022/05/03 14:39:25;;;;;;;3.33;2.70;;;;;;;23.88;29.61;97650.66;8503181;27;20221;-73
2022/05/03 14:43:35;;;;;;;3.00;2.60;;;;;;;23.89;29.49;97647.00;8503769;27;20397;-73
2022/05/03 14:47:39;;;;;;;4.70;3.00;;;;;;;23.45;30.35;97642.66;8503413;27;20310;-73
2022/05/03 14:51:42;;;;;;;3.63;2.50;;;;;;;23.13;30.67;97651.22;8503194;27;20243;-73
2022/05/03 15:04:26;;;;;;;3.47;2.50;;;;;;;22.59;32.11;97649.44;8485497;28;20479;-73
2022/05/03 15:08:28;;;;;;;3.80;2.50;;;;;;;22.96;31.05;97650.22;8485514;28;20236;-73
2022/05/03 15:12:33;;;;;;;5.37;2.80;;;;;;;22.28;32.04;97642.91;8485513;28;20240;-73
2022/05/03 15:16:36;;;;;;;6.03;2.83;;;;;;;22.57;30.91;97634.75;8485516;27;20567;-73
2022/05/03 15:20:39;;;;;;;5.53;2.97;;;;;;;22.36;30.70;97649.06;8485269;27;20231;-74
2022/05/03 15:24:42;;;;;;;6.30;3.10;;;;;;;21.34;36.18;97672.84;8484927;27;20252;-74
2022/05/03 15:28:47;;;;;;;7.57;2.87;;;;;;;21.28;36.26;97672.44;8484859;28;20275;-73
2022/05/03 15:32:50;;;;;;;8.47;2.90;;;;;;;20.94;35.88;97679.16;8484865;28;20532;-73
2022/05/03 15:36:53;;;;;;;4.63;2.63;;;;;;;20.79;37.43;97676.97;8484861;28;20233;-73
2022/05/03 15:40:56;;;;;;;4.47;2.87;;;;;;;20.92;37.46;97676.66;8484478;27;20230;-73
2022/05/03 15:45:00;;;;;;;6.63;3.00;;;;;;;20.74;36.45;97679.16;8484556;27;20237;-73
2022/05/03 15:49:03;;;;;;;7.30;2.67;;;;;;;20.77;36.55;97681.53;8484540;28;20423;-73
2022/05/03 15:53:06;;;;;;;3.67;3.20;;;;;;;20.72;38.05;97680.28;8484566;28;20528;-73
2022/05/03 15:57:10;;;;;;;9.70;8.80;;;;;;;20.53;36.71;97676.66;8484210;28;20335;-73
2022/05/03 16:01:14;;;;;;;7.97;3.60;;;;;;;20.30;36.79;97676.06;8483076;27;20236;-74
2022/05/03 16:05:19;;;;;;;6.43;3.70;;;;;;;20.55;36.97;97679.13;8506082;27;20261;-74
2022/05/03 16:09:22;;;;;;;4.73;3.10;;;;;;;20.51;38.13;97670.69;8517468;27;20220;-74
2022/05/03 16:13:25;;;;;;;7.77;3.77;;;;;;;20.48;37.00;97670.97;8516858;27;20435;-73
2022/05/03 16:17:30;;;;;;;5.10;3.37;;;;;;;20.35;38.80;97675.66;8517233;27;20233;-73
2022/05/03 16:21:33;;;;;;;4.23;3.60;;;;;;;20.54;39.19;97686.19;8507182;27;20284;-73
2022/05/03 16:25:36;;;;;;;8.57;3.63;;;;;;;20.32;37.22;97684.66;8502242;27;20524;-73
2022/05/03 16:29:40;;;;;;;5.93;3.00;;;;;;;20.53;38.94;97692.44;8499708;27;20229;-74
2022/05/03 16:33:44;;;;;;;7.93;3.20;;;;;;;20.52;39.30;97693.38;8504834;27;20391;-74
2022/05/03 16:42:12;;;;;;;7.90;3.40;;;;;;;20.77;39.36;97694.69;8516413;27;20228;-74
2022/05/03 16:46:15;;;;;;;9.70;3.80;;;;;;;20.88;38.57;97693.69;8500245;27;20437;-73
2022/05/03 16:50:22;;;;;;;4.60;2.90;;;;;;;20.25;37.00;97691.41;8499401;27;20516;-74
2022/05/03 16:54:25;;;;;;;7.80;3.40;;;;;;;20.29;39.58;97693.63;8482164;28;20233;-73
2022/05/03 16:58:28;;;;;;;15.70;5.00;;;;;;;20.34;40.33;97695.03;8482177;28;20230;-74
2022/05/03 17:02:31;;;;;;;24.37;8.93;;;;;;;20.41;40.23;97694.34;8481855;28;20233;-74
2022/05/03 17:06:36;;;;;;;16.13;6.57;;;;;;;20.43;40.42;97697.69;8481472;28;20328;-74
2022/05/03 17:10:39;;;;;;;18.37;6.27;;;;;;;20.51;42.96;97697.81;8480956;28;20252;-74
2022/05/03 17:14:43;;;;;;;13.70;7.03;;;;;;;20.67;43.05;97688.59;8481746;27;20237;-74
2022/05/03 17:18:48;;;;;;;7.13;3.67;;;;;;;20.06;39.69;97689.56;8481474;27;20293;-72
2022/05/03 17:22:53;;;;;;;6.23;3.50;;;;;;;19.97;39.54;97699.09;8489458;27;20233;-75
2022/05/03 17:26:56;;;;;;;5.03;3.60;;;;;;;20.08;39.57;97693.72;8480853;28;20248;-75
2022/05/03 17:31:00;;;;;;;5.10;3.50;;;;;;;19.96;39.80;97699.25;8489777;27;20285;-75
2022/05/03 17:35:03;;;;;;;5.73;3.47;;;;;;;19.93;40.17;97697.69;8489482;27;20229;-74
2022/05/03 17:39:08;;;;;;;5.47;3.40;;;;;;;20.03;40.14;97698.56;8489736;27;20237;-74
2022/05/03 17:43:11;;;;;;;5.77;3.40;;;;;;;20.02;40.51;97694.25;8488535;27;20538;-73
2022/05/03 17:47:14;;;;;;;6.80;3.60;;;;;;;19.83;40.87;97702.91;8512754;27;20225;-74
2022/05/03 17:51:16;;;;;;;7.70;3.77;;;;;;;19.87;41.00;97703.47;8514606;27;20234;-71
2022/05/03 17:55:21;;;;;;;9.03;7.73;;;;;;;19.85;40.93;97703.59;8508397;27;20431;-74
2022/05/03 17:59:24;;;;;;;6.33;3.80;;;;;;;19.62;40.71;97697.69;8505429;27;20212;-75
2022/05/03 18:03:27;;;;;;;8.23;3.70;;;;;;;19.54;41.04;97695.72;8514371;27;20232;-74
2022/05/03 18:07:31;;;;;;;6.43;5.33;;;;;;;19.70;41.71;97707.53;8512920;27;20233;-73
2022/05/03 18:11:36;;;;;;;4.83;4.10;;;;;;;19.82;41.46;97710.91;8497223;27;20241;-74
2022/05/03 18:15:43;;;;;;;6.33;4.50;;;;;;;19.68;42.54;97712.91;8497372;27;20536;-74
2022/05/03 18:19:46;;;;;;;6.53;4.80;;;;;;;19.70;42.40;97720.66;8497519;27;20556;-75
2022/05/03 18:23:50;;;;;;;7.37;4.70;;;;;;;19.69;43.30;97737.41;8480271;28;20223;-74
2022/05/03 18:27:55;;;;;;;6.30;4.77;;;;;;;19.70;43.47;97731.16;8480081;28;20245;-73
2022/05/03 18:31:59;;;;;;;9.77;5.63;;;;;;;19.64;43.22;97735.16;8480378;28;20525;-74
2022/05/03 18:36:04;;;;;;;8.17;5.07;;;;;;;19.66;42.70;97730.59;8480056;28;20240;-75
2022/05/03 18:40:08;;;;;;;5.87;4.73;;;;;;;19.56;43.70;97747.28;8488414;27;20236;-74
2022/05/03 18:44:13;;;;;;;8.73;6.47;;;;;;;19.52;44.69;97750.16;8488367;27;20241;-73
2022/05/03 18:48:16;;;;;;;10.33;9.30;;;;;;;19.51;45.14;97750.28;8488768;27;20552;-74
2022/05/03 18:52:19;;;;;;;8.57;6.43;;;;;;;19.39;45.23;97759.22;8488563;27;20229;-73
2022/05/03 18:56:22;;;;;;;7.47;4.90;;;;;;;19.37;45.80;97761.97;8492101;27;20403;-74
2022/05/03 19:00:28;;;;;;;7.37;4.70;;;;;;;19.29;45.86;97770.47;8494431;27;20225;-75
2022/05/03 19:04:31;;;;;;;10.83;4.30;;;;;;;19.30;45.42;97769.50;8494393;27;20247;-74
2022/05/03 19:08:34;;;;;;;12.80;5.20;;;;;;;19.24;45.75;97772.63;8494061;27;20237;-74
2022/05/03 19:12:37;;;;;;;9.57;5.67;;;;;;;19.09;46.04;97781.78;8494037;27;20559;-74
2022/05/03 19:16:41;;;;;;;8.63;6.10;;;;;;;19.06;46.23;97774.19;8493832;27;20233;-73
2022/05/03 19:20:44;;;;;;;10.20;5.90;;;;;;;18.95;47.40;97777.66;8490508;27;20229;-73
2022/05/03 19:33:30;;;;;;;12.20;5.60;;;;;;;18.72;47.82;97798.69;8509376;27;20213;-74
2022/05/03 19:37:33;;;;;;;8.00;5.60;;;;;;;18.72;48.56;97798.69;8504991;27;20230;-74
2022/05/03 19:41:37;;;;;;;8.40;5.93;;;;;;;18.66;48.52;97811.47;8518192;27;20221;-73
2022/05/03 19:45:41;;;;;;;14.73;6.90;;;;;;;18.69;48.66;97801.56;8515341;27;20225;-73
2022/05/03 19:49:47;;;;;;;12.87;8.53;;;;;;;18.66;48.35;97806.25;8507934;27;20230;-73
2022/05/03 19:53:51;;;;;;;12.17;7.80;;;;;;;18.56;48.63;97808.72;8515054;27;20298;-75
2022/05/03 19:57:54;;;;;;;10.43;6.90;;;;;;;18.59;48.84;97815.53;8517853;27;20233;-73
2022/05/03 20:01:57;;;;;;;12.30;6.60;;;;;;;18.53;49.24;97822.94;8517449;27;20224;-74
2022/05/03 20:06:05;;;;;;;8.57;6.27;;;;;;;18.53;49.46;97827.34;8516578;27;20229;-73
2022/05/03 20:10:11;;;;;;;9.40;5.87;;;;;;;18.48;49.19;97829.50;8517181;27;20519;-73
2022/05/03 20:14:18;;;;;;;10.70;5.63;;;;;;;18.35;49.51;97840.97;8485989;27;20243;-73
2022/05/03 20:18:23;;;;;;;7.73;5.80;;;;;;;18.28;49.55;97836.31;8508107;27;20221;-73
2022/05/03 20:22:27;;;;;;;11.10;6.00;;;;;;;18.32;49.87;97838.56;8516824;27;20225;-73